createdAt,value
2023-04-10T00:00:38.310Z,98874.97
2023-04-10T00:03:06.158Z,98877.63
2023-04-10T00:05:33.438Z,98881.44
2023-04-10T00:08:01.071Z,98883.94
2023-04-10T00:10:30.461Z,98880.31
2023-04-10T00:12:59.269Z,98879.66
2023-04-10T00:15:26.634Z,98881.00
2023-04-10T00:17:55.424Z,98873.56
2023-04-10T00:20:23.506Z,98881.84
2023-04-10T00:22:50.596Z,98862.47
2023-04-10T00:25:17.832Z,98871.72
2023-04-10T00:27:44.869Z,98862.00
2023-04-10T00:30:11.965Z,98863.94
2023-04-10T00:32:38.977Z,98860.16
2023-04-10T00:35:08.143Z,98861.63
2023-04-10T00:37:35.795Z,98856.34
2023-04-10T00:40:03.464Z,98858.84
2023-04-10T00:42:30.766Z,98860.50
2023-04-10T00:44:57.909Z,98855.38
2023-04-10T00:47:26.218Z,98847.13
2023-04-10T00:49:53.826Z,98849.09
2023-04-10T00:52:20.916Z,98847.16
2023-04-10T00:54:48.233Z,98841.16
2023-04-10T00:57:15.634Z,98842.16
2023-04-10T00:59:42.720Z,98845.47
2023-04-10T01:02:13.145Z,98840.19
2023-04-10T01:04:41.026Z,98840.84
2023-04-10T01:07:48.955Z,98844.63
2023-04-10T01:10:26.441Z,98849.94
2023-04-10T01:13:23.271Z,98840.16
2023-04-10T01:16:06.490Z,98848.56
2023-04-10T01:18:46.767Z,98850.09
2023-04-10T01:21:15.946Z,98847.75
2023-04-10T01:23:57.895Z,98852.38
2023-04-10T01:27:21.957Z,98857.00
2023-04-10T01:29:56.574Z,98854.06
2023-04-10T01:32:24.915Z,98856.56
2023-04-10T01:34:55.874Z,98859.53
2023-04-10T01:37:28.093Z,98862.34
2023-04-10T01:39:59.655Z,98867.59
2023-04-10T01:42:31.484Z,98867.97
2023-04-10T01:45:00.883Z,98867.78
2023-04-10T01:47:29.094Z,98868.81
2023-04-10T01:49:58.834Z,98856.72
2023-04-10T01:52:27.202Z,98863.31
2023-04-10T01:55:08.175Z,98867.63
2023-04-10T01:57:42.813Z,98868.97
2023-04-10T02:00:10.883Z,98867.94
2023-04-10T02:02:44.693Z,98863.19
2023-04-10T02:05:12.015Z,98859.03
2023-04-10T02:08:00.666Z,98854.59
2023-04-10T02:10:46.151Z,98853.75
2023-04-10T02:13:16.250Z,98848.81
2023-04-10T02:15:46.640Z,98850.78
2023-04-10T02:18:17.016Z,98847.81
2023-04-10T02:20:44.629Z,98840.69
2023-04-10T02:23:16.203Z,98848.13
2023-04-10T02:25:43.374Z,98844.31
2023-04-10T02:28:10.606Z,98842.53
2023-04-10T02:30:39.240Z,98836.22
2023-04-10T02:33:06.405Z,98844.31
2023-04-10T02:35:34.271Z,98832.25
2023-04-10T02:38:03.331Z,98838.03
2023-04-10T02:40:33.866Z,98836.06
2023-04-10T02:43:12.760Z,98839.19
2023-04-10T02:45:41.728Z,98840.16
2023-04-10T02:48:14.073Z,98844.78
2023-04-10T02:50:46.076Z,98842.50
2023-04-10T02:53:16.965Z,98838.88
2023-04-10T02:55:44.058Z,98842.16
2023-04-10T02:58:13.854Z,98841.31
2023-04-10T03:00:42.100Z,98852.06
2023-04-10T03:03:17.292Z,98845.56
2023-04-10T03:05:51.781Z,98853.13
2023-04-10T03:08:24.502Z,98846.19
2023-04-10T03:10:51.591Z,98846.00
2023-04-10T03:13:18.898Z,98843.69
2023-04-10T03:15:45.938Z,98843.97
2023-04-10T03:18:13.251Z,98852.56
2023-04-10T03:20:45.054Z,98851.94
2023-04-10T03:23:12.512Z,98848.16
2023-04-10T03:25:39.490Z,98850.59
2023-04-10T03:28:08.251Z,98856.16
2023-04-10T03:30:37.129Z,98846.81
2023-04-10T03:33:04.373Z,98848.09
2023-04-10T03:35:31.681Z,98843.81
2023-04-10T03:37:59.985Z,98844.78
2023-04-10T03:40:27.454Z,98836.72
2023-04-10T03:42:54.495Z,98827.47
2023-04-10T03:45:21.582Z,98825.31
2023-04-10T03:47:48.613Z,98819.88
2023-04-10T03:50:16.504Z,98824.00
2023-04-10T03:52:52.158Z,98818.72
2023-04-10T03:55:22.749Z,98816.16
2023-04-10T03:57:51.360Z,98822.47
2023-04-10T04:00:22.106Z,98824.28
2023-04-10T04:02:53.029Z,98818.53
2023-04-10T04:05:46.055Z,98826.91
2023-04-10T04:08:45.510Z,98822.88
2023-04-10T04:11:36.262Z,98823.25
2023-04-10T04:14:07.610Z,98819.63
2023-04-10T04:16:47.722Z,98825.72
2023-04-10T04:19:33.539Z,98814.69
2023-04-10T04:22:09.717Z,98817.19
2023-04-10T04:24:56.901Z,98815.53
2023-04-10T04:27:50.721Z,98813.19
2023-04-10T04:30:41.743Z,98813.66
2023-04-10T04:33:18.439Z,98817.78
2023-04-10T04:36:20.924Z,98822.38
2023-04-10T04:38:54.746Z,98818.59
2023-04-10T04:41:40.238Z,98822.38
2023-04-10T04:44:15.997Z,98821.19
2023-04-10T04:47:00.781Z,98822.53
2023-04-10T04:49:46.652Z,98816.91
2023-04-10T04:52:25.694Z,98818.75
2023-04-10T04:55:19.069Z,98817.94
2023-04-10T04:58:21.318Z,98808.84
2023-04-10T05:01:11.065Z,98811.13
2023-04-10T05:04:01.319Z,98804.19
2023-04-10T05:06:39.446Z,98803.56
2023-04-10T05:09:38.757Z,98813.66
2023-04-10T05:12:20.904Z,98815.28
2023-04-10T05:15:03.483Z,98814.00
2023-04-10T05:17:37.806Z,98819.91
2023-04-10T05:20:23.449Z,98806.22
2023-04-10T05:23:17.511Z,98807.78
2023-04-10T05:26:16.640Z,98811.50
2023-04-10T05:28:57.317Z,98808.59
2023-04-10T05:31:30.495Z,98813.41
2023-04-10T05:34:19.934Z,98807.81
2023-04-10T05:37:07.162Z,98813.09
2023-04-10T05:40:00.072Z,98811.50
2023-04-10T05:42:27.314Z,98812.81
2023-04-10T05:45:09.249Z,98808.53
2023-04-10T05:47:41.041Z,98809.13
2023-04-10T05:50:29.971Z,98808.84
2023-04-10T05:53:20.240Z,98809.22
2023-04-10T05:56:24.646Z,98799.31
2023-04-10T05:58:54.782Z,98803.88
2023-04-10T06:01:47.252Z,98813.72
2023-04-10T06:04:15.887Z,98812.84
2023-04-10T06:06:43.891Z,98795.53
2023-04-10T06:09:24.883Z,98806.81
2023-04-10T06:11:52.208Z,98806.66
2023-04-10T06:14:23.150Z,98819.53
2023-04-10T06:16:50.472Z,98815.22
2023-04-10T06:19:17.493Z,98818.81
2023-04-10T06:21:44.697Z,98815.91
2023-04-10T06:24:14.190Z,98806.78
2023-04-10T06:26:41.280Z,98797.81
2023-04-10T06:29:10.594Z,98799.13
2023-04-10T06:31:38.131Z,98800.13
2023-04-10T06:34:05.398Z,98791.78
2023-04-10T06:36:35.089Z,98794.47
2023-04-10T06:39:06.693Z,98795.09
2023-04-10T06:41:33.993Z,98791.53
2023-04-10T06:44:15.811Z,98789.00
2023-04-10T06:46:42.902Z,98791.75
2023-04-10T06:49:10.453Z,98785.66
2023-04-10T06:51:37.786Z,98784.09
2023-04-10T06:54:04.924Z,98777.66
2023-04-10T06:56:32.144Z,98776.97
2023-04-10T06:58:59.176Z,98782.59
2023-04-10T07:01:26.612Z,98778.59
2023-04-10T07:03:53.829Z,98778.13
2023-04-10T07:06:21.316Z,98778.97
2023-04-10T07:08:51.592Z,98779.78
2023-04-10T07:11:18.661Z,98782.88
2023-04-10T07:13:46.068Z,98771.41
2023-04-10T07:16:13.198Z,98767.13
2023-04-10T07:18:41.565Z,98771.34
2023-04-10T07:21:13.272Z,98773.31
2023-04-10T07:23:41.144Z,98783.63
2023-04-10T07:26:08.177Z,98775.00
2023-04-10T07:28:35.311Z,98777.44
2023-04-10T07:31:02.425Z,98771.09
2023-04-10T07:33:29.676Z,98768.84
2023-04-10T07:35:56.928Z,98776.13
2023-04-10T07:38:24.696Z,98781.00
2023-04-10T07:41:01.315Z,98769.47
2023-04-10T07:43:28.337Z,98770.84
2023-04-10T07:45:57.504Z,98779.09
2023-04-10T07:48:25.043Z,98773.47
2023-04-10T07:50:52.152Z,98782.03
2023-04-10T07:53:19.824Z,98777.56
2023-04-10T07:55:48.829Z,98776.75
2023-04-10T07:58:16.480Z,98769.16
2023-04-10T08:00:43.582Z,98775.75
2023-04-10T08:03:13.225Z,98765.44
2023-04-10T08:05:40.799Z,98764.47
2023-04-10T08:08:07.768Z,98766.41
2023-04-10T08:10:38.457Z,98755.56
2023-04-10T08:13:06.335Z,98758.53
2023-04-10T08:15:33.689Z,98757.84
2023-04-10T08:18:00.912Z,98751.84
2023-04-10T08:20:28.482Z,98757.22
2023-04-10T08:22:58.934Z,98757.38
2023-04-10T08:25:31.258Z,98756.38
2023-04-10T08:28:00.457Z,98752.09
2023-04-10T08:30:27.456Z,98755.31
2023-04-10T08:32:54.517Z,98747.69
2023-04-10T08:35:21.627Z,98743.25
2023-04-10T08:37:53.616Z,98752.31
2023-04-10T08:40:29.530Z,98740.34
2023-04-10T08:42:56.627Z,98745.63
2023-04-10T08:45:23.637Z,98743.75
2023-04-10T08:47:53.322Z,98730.53
2023-04-10T08:50:20.750Z,98737.97
2023-04-10T08:52:52.982Z,98742.06
2023-04-10T08:55:20.779Z,98723.03
2023-04-10T08:57:54.347Z,98716.56
2023-04-10T09:00:29.042Z,98725.72
2023-04-10T09:05:45.492Z,98723.41
2023-04-10T09:08:15.651Z,98723.91
2023-04-10T09:10:43.156Z,98719.00
2023-04-10T09:13:10.320Z,98714.22
2023-04-10T09:15:58.308Z,98721.06
2023-04-10T09:18:48.875Z,98720.69
2023-04-10T09:21:19.712Z,98715.47
2023-04-10T09:23:48.751Z,98715.78
2023-04-10T09:26:31.705Z,98704.19
2023-04-10T09:29:02.803Z,98701.97
2023-04-10T09:31:40.159Z,98709.50
2023-04-10T09:34:12.375Z,98707.84
2023-04-10T09:36:43.883Z,98703.25
2023-04-10T09:39:12.623Z,98701.22
2023-04-10T09:41:53.118Z,98702.59
2023-04-10T09:44:33.151Z,98703.09
2023-04-10T09:47:18.435Z,98699.69
2023-04-10T09:49:53.636Z,98692.78
2023-04-10T09:52:27.222Z,98677.41
2023-04-10T09:54:59.509Z,98679.78
2023-04-10T09:57:31.903Z,98665.19
2023-04-10T10:00:04.085Z,98662.31
2023-04-10T10:02:39.205Z,98648.41
2023-04-10T10:05:07.910Z,98646.44
2023-04-10T10:07:35.825Z,98649.66
2023-04-10T10:10:04.043Z,98641.16
2023-04-10T10:12:48.334Z,98643.13
2023-04-10T10:15:28.213Z,98638.19
2023-04-10T10:18:26.643Z,98623.97
2023-04-10T10:20:54.229Z,98623.13
2023-04-10T10:23:22.583Z,98613.59
2023-04-10T10:25:50.498Z,98613.66
2023-04-10T10:28:20.693Z,98624.19
2023-04-10T10:30:49.859Z,98628.31
2023-04-10T10:33:17.942Z,98622.91
2023-04-10T10:35:45.385Z,98612.19
2023-04-10T10:38:12.992Z,98611.22
2023-04-10T10:40:57.897Z,98603.41
2023-04-10T10:43:38.169Z,98599.75
2023-04-10T10:46:15.105Z,98601.56
2023-04-10T10:48:59.511Z,98589.38
2023-04-10T10:51:51.023Z,98585.16
2023-04-10T10:54:38.880Z,98586.94
2023-04-10T10:57:48.632Z,98581.81
2023-04-10T11:00:16.969Z,98587.13
2023-04-10T11:02:44.620Z,98578.25
2023-04-10T11:05:54.257Z,98565.97
2023-04-10T11:08:47.268Z,98554.88
2023-04-10T11:11:23.581Z,98562.34
2023-04-10T11:13:53.376Z,98569.81
2023-04-10T11:16:22.490Z,98553.06
2023-04-10T11:18:55.774Z,98560.22
2023-04-10T11:21:29.870Z,98560.06
2023-04-10T11:23:57.262Z,98563.59
2023-04-10T11:26:43.168Z,98567.13
2023-04-10T11:29:15.719Z,98551.63
2023-04-10T11:31:45.099Z,98543.47
2023-04-10T11:34:12.884Z,98538.53
2023-04-10T11:36:42.813Z,98543.06
2023-04-10T11:39:18.531Z,98528.75
2023-04-10T11:41:51.651Z,98526.25
2023-04-10T11:44:26.482Z,98521.75
2023-04-10T11:46:54.002Z,98525.09
2023-04-10T11:49:24.705Z,98520.72
2023-04-10T11:51:52.471Z,98521.19
2023-04-10T11:54:21.564Z,98518.91
2023-04-10T11:57:09.834Z,98517.63
2023-04-10T11:59:36.824Z,98520.41
2023-04-10T12:02:14.865Z,98509.50
2023-04-10T12:04:44.210Z,98509.50
2023-04-10T12:07:11.789Z,98515.00
2023-04-10T12:09:38.951Z,98512.31
2023-04-10T12:12:08.226Z,98489.41
2023-04-10T12:14:36.934Z,98488.13
2023-04-10T12:17:05.592Z,98485.28
2023-04-10T12:19:34.244Z,98477.19
2023-04-10T12:22:02.892Z,98483.03
2023-04-10T12:24:50.050Z,98487.13
2023-04-10T12:27:27.925Z,98474.69
2023-04-10T12:29:57.399Z,98462.28
2023-04-10T12:32:27.277Z,98470.34
2023-04-10T12:35:01.391Z,98480.50
2023-04-10T12:37:54.416Z,98477.16
2023-04-10T12:40:21.599Z,98464.41
2023-04-10T12:42:48.652Z,98458.88
2023-04-10T12:45:15.939Z,98443.97
2023-04-10T12:47:54.074Z,98448.41
2023-04-10T12:50:21.548Z,98453.47
2023-04-10T12:53:04.998Z,98447.38
2023-04-10T12:55:33.265Z,98441.56
2023-04-10T12:58:20.353Z,98434.25
2023-04-10T13:00:48.390Z,98431.69
2023-04-10T13:03:15.801Z,98430.19
2023-04-10T13:05:44.547Z,98429.69
2023-04-10T13:08:11.561Z,98426.78
2023-04-10T13:10:38.893Z,98428.47
2023-04-10T13:13:07.173Z,98430.47
2023-04-10T13:15:34.920Z,98427.94
2023-04-10T13:18:03.716Z,98418.88
2023-04-10T13:20:34.170Z,98424.25
2023-04-10T13:23:02.804Z,98428.50
2023-04-10T13:25:37.180Z,98424.94
2023-04-10T13:28:09.991Z,98415.38
2023-04-10T13:30:41.569Z,98409.03
2023-04-10T13:33:09.613Z,98410.38
2023-04-10T13:35:36.704Z,98402.56
2023-04-10T13:38:04.028Z,98390.44
2023-04-10T13:40:31.174Z,98390.34
2023-04-10T13:42:58.238Z,98402.44
2023-04-10T13:45:25.374Z,98387.63
2023-04-10T13:47:52.515Z,98392.47
2023-04-10T13:50:20.239Z,98380.06
2023-04-10T13:52:47.191Z,98380.19
2023-04-10T13:55:14.145Z,98391.94
2023-04-10T13:57:41.895Z,98378.97
2023-04-10T14:00:10.327Z,98380.44
2023-04-10T14:02:40.271Z,98389.16
2023-04-10T14:05:07.955Z,98384.81
2023-04-10T14:07:35.060Z,98383.06
2023-04-10T14:10:02.681Z,98368.91
2023-04-10T14:12:29.660Z,98366.25
2023-04-10T14:14:56.915Z,98366.34
2023-04-10T14:17:24.266Z,98362.66
2023-04-10T14:19:52.371Z,98367.00
2023-04-10T14:22:19.618Z,98357.94
2023-04-10T14:24:46.731Z,98359.69
2023-04-10T14:27:13.879Z,98354.91
2023-04-10T14:29:50.494Z,98355.41
2023-04-10T14:32:21.593Z,98345.47
2023-04-10T14:34:48.710Z,98345.44
2023-04-10T14:37:15.793Z,98333.06
2023-04-10T14:39:46.518Z,98331.09
2023-04-10T14:42:13.459Z,98341.44
2023-04-10T14:44:40.577Z,98335.25
2023-04-10T14:47:08.037Z,98329.19
2023-04-10T14:49:35.050Z,98316.91
2023-04-10T14:52:01.991Z,98322.97
2023-04-10T14:54:28.956Z,98320.88
2023-04-10T14:56:57.279Z,98329.97
2023-04-10T14:59:24.407Z,98314.31
2023-04-10T15:01:53.923Z,98309.38
2023-04-10T15:04:21.213Z,98307.91
2023-04-10T15:06:48.171Z,98303.72
2023-04-10T15:09:15.133Z,98298.88
2023-04-10T15:11:42.193Z,98294.13
2023-04-10T15:14:09.192Z,98298.66
2023-04-10T15:16:36.366Z,98293.81
2023-04-10T15:19:03.384Z,98287.88
2023-04-10T15:21:31.220Z,98282.78
2023-04-10T15:23:58.225Z,98272.53
2023-04-10T15:26:25.327Z,98275.00
2023-04-10T15:28:52.888Z,98277.44
2023-04-10T15:31:23.744Z,98280.94
2023-04-10T15:33:52.312Z,98271.25
2023-04-10T15:36:19.445Z,98274.25
2023-04-10T15:38:48.141Z,98258.84
2023-04-10T15:41:16.763Z,98253.94
2023-04-10T15:43:43.682Z,98256.00
2023-04-10T15:46:10.828Z,98253.84
2023-04-10T15:48:38.208Z,98252.44
2023-04-10T15:51:06.629Z,98252.16
2023-04-10T15:53:34.658Z,98245.00
2023-04-10T15:56:04.274Z,98235.47
2023-04-10T15:58:31.195Z,98231.94
2023-04-10T16:00:58.118Z,98226.03
2023-04-10T16:03:28.590Z,98232.81
2023-04-10T16:05:58.261Z,98233.59
2023-04-10T16:08:26.176Z,98227.66
2023-04-10T16:10:53.834Z,98215.00
2023-04-10T16:13:20.898Z,98215.47
2023-04-10T16:15:49.036Z,98214.47
2023-04-10T16:18:16.104Z,98218.78
2023-04-10T16:20:43.616Z,98209.75
2023-04-10T16:23:10.814Z,98203.84
2023-04-10T16:25:37.957Z,98207.91
2023-04-10T16:28:07.795Z,98200.94
2023-04-10T16:30:35.966Z,98205.13
2023-04-10T16:33:04.290Z,98210.34
2023-04-10T16:35:31.969Z,98200.59
2023-04-10T16:37:59.097Z,98200.31
2023-04-10T16:40:32.267Z,98194.25
2023-04-10T16:43:02.737Z,98191.63
2023-04-10T16:45:29.987Z,98178.84
2023-04-10T16:47:57.226Z,98171.28
2023-04-10T16:50:24.390Z,98170.88
2023-04-10T16:52:51.345Z,98165.31
2023-04-10T16:55:18.627Z,98147.41
2023-04-10T16:57:46.358Z,98143.56
2023-04-10T17:00:14.026Z,98140.13
2023-04-10T17:02:42.835Z,98130.44
2023-04-10T17:05:11.461Z,98128.56
2023-04-10T17:07:39.042Z,98129.38
2023-04-10T17:10:06.549Z,98134.38
2023-04-10T17:12:33.612Z,98137.09
2023-04-10T17:15:00.738Z,98134.94
2023-04-10T17:17:27.964Z,98134.50
2023-04-10T17:19:55.710Z,98140.38
2023-04-10T17:22:23.373Z,98144.66
2023-04-10T17:24:50.489Z,98141.13
2023-04-10T17:27:17.495Z,98141.25
2023-04-10T17:29:44.566Z,98128.25
2023-04-10T17:32:11.760Z,98137.44
2023-04-10T17:34:39.141Z,98127.38
2023-04-10T17:37:06.285Z,98130.84
2023-04-10T17:39:33.418Z,98121.13
2023-04-10T17:42:01.449Z,98126.13
2023-04-10T17:44:28.447Z,98123.66
2023-04-10T17:46:55.533Z,98125.22
2023-04-10T17:49:22.623Z,98118.13
2023-04-10T17:51:49.929Z,98131.00
2023-04-10T17:54:17.011Z,98114.53
2023-04-10T17:56:44.027Z,98117.50
2023-04-10T17:59:11.242Z,98116.09
2023-04-10T18:01:38.584Z,98102.91
2023-04-10T18:04:06.700Z,98091.94
2023-04-10T18:06:33.877Z,98100.78
2023-04-10T18:09:00.891Z,98094.31
2023-04-10T18:11:28.506Z,98102.19
2023-04-10T18:13:55.758Z,98105.44
2023-04-10T18:16:22.859Z,98095.25
2023-04-10T18:18:50.119Z,98084.97
2023-04-10T18:21:18.224Z,98080.84
2023-04-10T18:23:49.164Z,98071.78
2023-04-10T18:26:20.966Z,98072.75
2023-04-10T18:28:48.165Z,98058.09
2023-04-10T18:31:16.631Z,98060.31
2023-04-10T18:33:43.719Z,98059.13
2023-04-10T18:36:11.378Z,98072.09
2023-04-10T18:38:41.171Z,98066.50
2023-04-10T18:41:08.541Z,98069.72
2023-04-10T18:43:38.416Z,98079.78
2023-04-10T18:46:06.437Z,98089.84
2023-04-10T18:48:36.060Z,98092.09
2023-04-10T18:51:03.165Z,98094.91
2023-04-10T18:53:30.321Z,98096.53
2023-04-10T18:55:57.443Z,98097.25
2023-04-10T18:58:24.630Z,98098.31
2023-04-10T19:00:53.709Z,98106.53
2023-04-10T19:03:20.950Z,98108.81
2023-04-10T19:05:48.054Z,98110.91
2023-04-10T19:08:15.754Z,98104.25
2023-04-10T19:10:43.363Z,98103.69
2023-04-10T19:13:12.055Z,98104.09
2023-04-10T19:15:45.414Z,98105.50
2023-04-10T19:18:14.124Z,98098.81
2023-04-10T19:20:52.619Z,98108.88
2023-04-10T19:23:21.259Z,98115.50
2023-04-10T19:25:55.023Z,98113.25
2023-04-10T19:28:23.501Z,98114.19
2023-04-10T19:30:53.283Z,98099.78
2023-04-10T19:33:20.829Z,98094.25
2023-04-10T19:35:47.918Z,98101.97
2023-04-10T19:38:15.006Z,98095.03
2023-04-10T19:40:42.172Z,98099.63
2023-04-10T19:43:09.214Z,98121.34
2023-04-10T19:45:37.584Z,98131.75
2023-04-10T19:48:05.161Z,98131.25
2023-04-10T19:50:32.197Z,98133.97
2023-04-10T19:52:59.743Z,98124.91
2023-04-10T19:55:27.400Z,98126.31
2023-04-10T19:57:54.948Z,98123.81
2023-04-10T20:00:22.195Z,98126.97
2023-04-10T20:02:49.256Z,98114.31
2023-04-10T20:05:16.463Z,98101.94
2023-04-10T20:07:43.575Z,98104.94
2023-04-10T20:10:10.801Z,98116.75
2023-04-10T20:12:38.609Z,98117.88
2023-04-10T20:15:06.586Z,98112.63
2023-04-10T20:17:33.699Z,98112.84
2023-04-10T20:20:00.724Z,98100.31
2023-04-10T20:22:29.012Z,98098.47
2023-04-10T20:24:56.084Z,98098.59
2023-04-10T20:27:24.670Z,98096.81
2023-04-10T20:29:51.679Z,98084.31
2023-04-10T20:32:19.052Z,98084.72
2023-04-10T20:34:46.079Z,98073.81
2023-04-10T20:37:17.268Z,98080.88
2023-04-10T20:39:44.296Z,98080.31
2023-04-10T20:42:11.363Z,98074.34
2023-04-10T20:44:38.889Z,98065.78
2023-04-10T20:47:06.683Z,98069.81
2023-04-10T20:49:34.511Z,98074.38
2023-04-10T20:52:01.552Z,98073.03
2023-04-10T20:54:28.961Z,98074.22
2023-04-10T20:57:00.169Z,98067.16
2023-04-10T20:59:27.597Z,98058.44
2023-04-10T21:01:54.725Z,98049.78
2023-04-10T21:04:22.310Z,98049.88
2023-04-10T21:06:49.750Z,98045.72
2023-04-10T21:09:16.718Z,98049.19
2023-04-10T21:11:44.098Z,98046.06
2023-04-10T21:14:11.182Z,98031.59
2023-04-10T21:16:41.338Z,98034.34
2023-04-10T21:19:11.869Z,98035.50
2023-04-10T21:21:39.289Z,98034.75
2023-04-10T21:24:06.963Z,98028.69
2023-04-10T21:26:34.085Z,98029.91
2023-04-10T21:29:01.466Z,98027.78
2023-04-10T21:31:29.069Z,98028.78
2023-04-10T21:33:56.265Z,98026.94
2023-04-10T21:36:23.404Z,98022.25
2023-04-10T21:38:50.464Z,98016.81
2023-04-10T21:41:17.488Z,98029.53
2023-04-10T21:43:44.937Z,98034.88
2023-04-10T21:46:12.016Z,98049.47
2023-04-10T21:48:39.030Z,98047.91
2023-04-10T21:51:06.487Z,98043.88
2023-04-10T21:53:33.482Z,98036.31
2023-04-10T21:56:00.553Z,98047.16
2023-04-10T21:58:27.562Z,98041.88
2023-04-10T22:00:54.820Z,98038.47
2023-04-10T22:03:22.293Z,98039.03
2023-04-10T22:05:50.643Z,98027.31
2023-04-10T22:08:19.961Z,98012.03
2023-04-10T22:10:48.105Z,98007.66
2023-04-10T22:13:23.701Z,98007.63
2023-04-10T22:15:57.595Z,98003.31
2023-04-10T22:18:24.643Z,97998.81
2023-04-10T22:20:51.755Z,97983.72
2023-04-10T22:23:18.841Z,97971.03
2023-04-10T22:25:46.016Z,97968.63
2023-04-10T22:28:13.052Z,97960.47
2023-04-10T22:30:40.121Z,97953.22
2023-04-10T22:33:07.386Z,97939.00
2023-04-10T22:35:34.486Z,97955.19
2023-04-10T22:38:03.741Z,97936.06
2023-04-10T22:40:31.421Z,97933.50
2023-04-10T22:42:58.430Z,97938.06
2023-04-10T22:45:25.882Z,97928.63
2023-04-10T22:47:52.916Z,97914.34
2023-04-10T22:50:21.103Z,97885.69
2023-04-10T22:52:48.321Z,97883.72
2023-04-10T22:55:15.795Z,97889.94
2023-04-10T22:57:46.920Z,97887.09
2023-04-10T23:00:14.384Z,97887.00
2023-04-10T23:02:41.538Z,97881.47
2023-04-10T23:05:09.283Z,97884.28
2023-04-10T23:07:36.234Z,97865.13
2023-04-10T23:10:03.302Z,97854.47
2023-04-10T23:12:30.413Z,97846.03
2023-04-10T23:14:57.932Z,97848.09
2023-04-10T23:17:25.525Z,97868.16
2023-04-10T23:19:53.001Z,97894.38
2023-04-10T23:22:20.073Z,97900.16
2023-04-10T23:24:48.117Z,97908.06
2023-04-10T23:27:15.221Z,97903.97
2023-04-10T23:29:42.220Z,97896.75
2023-04-10T23:32:09.332Z,97886.75
2023-04-10T23:34:36.376Z,97876.78
2023-04-10T23:37:03.426Z,97889.44
2023-04-10T23:39:30.566Z,97881.75
2023-04-10T23:41:57.846Z,97883.97
2023-04-10T23:44:25.098Z,97875.03
2023-04-10T23:46:52.223Z,97872.72
2023-04-10T23:49:19.311Z,97868.97
2023-04-10T23:51:46.314Z,97862.75
2023-04-10T23:54:13.843Z,97851.38
2023-04-10T23:56:41.448Z,97856.25
2023-04-10T23:59:08.518Z,97856.63
